createdAt,value
2023-10-17T00:01:54.347Z,3.72
2023-10-17T00:12:11.396Z,3.55
2023-10-17T00:17:17.757Z,4.05
2023-10-17T00:22:25.561Z,4.13
2023-10-17T00:27:28.543Z,4.32
2023-10-17T00:32:33.127Z,4.78
2023-10-17T00:37:39.346Z,3.95
2023-10-17T00:42:43.210Z,5.70
2023-10-17T00:47:46.854Z,5.07
2023-10-17T00:52:50.941Z,6.00
2023-10-17T00:57:54.641Z,6.28
2023-10-17T01:03:07.363Z,5.47
2023-10-17T01:08:10.491Z,5.40
2023-10-17T01:13:13.523Z,5.97
2023-10-17T01:18:17.727Z,6.18
2023-10-17T01:23:22.085Z,6.95
2023-10-17T01:28:25.153Z,6.95
2023-10-17T01:33:31.120Z,7.25
2023-10-17T01:38:34.336Z,6.07
2023-10-17T01:43:41.726Z,4.97
2023-10-17T01:48:47.595Z,6.80
2023-10-17T01:53:52.435Z,6.53
2023-10-17T01:59:10.749Z,7.18
2023-10-17T02:04:20.089Z,6.72
2023-10-17T02:09:39.763Z,6.22
2023-10-17T02:14:43.041Z,5.18
2023-10-17T02:19:46.079Z,5.88
2023-10-17T02:24:48.977Z,5.20
2023-10-17T02:29:54.697Z,4.88
2023-10-17T02:34:57.597Z,4.40
2023-10-17T02:40:10.699Z,2.85
2023-10-17T02:45:28.517Z,2.22
2023-10-17T02:50:34.324Z,0.75
2023-10-17T02:55:37.211Z,0.60
2023-10-17T03:00:45.688Z,0.52
2023-10-17T03:05:54.970Z,0.60
2023-10-17T03:11:00.976Z,0.47
2023-10-17T03:16:18.302Z,0.55
2023-10-17T03:21:31.511Z,0.40
2023-10-17T03:26:55.777Z,0.30
2023-10-17T03:32:04.990Z,0.40
2023-10-17T03:37:26.991Z,0.30
2023-10-17T03:42:39.206Z,0.32
2023-10-17T03:47:42.654Z,0.30
2023-10-17T03:52:45.738Z,0.20
2023-10-17T03:57:54.338Z,0.40
2023-10-17T04:02:58.183Z,0.30
2023-10-17T04:08:02.031Z,0.10
2023-10-17T04:13:23.605Z,0.20
2023-10-17T04:18:26.505Z,0.20
2023-10-17T04:23:32.023Z,0.10
2023-10-17T04:28:35.626Z,0.13
2023-10-17T04:33:41.531Z,0.10
2023-10-17T04:38:48.944Z,0.17
2023-10-17T04:43:58.254Z,0.10
2023-10-17T04:49:18.687Z,0.30
2023-10-17T04:54:31.304Z,0.10
2023-10-17T04:59:50.944Z,0.20
2023-10-17T05:04:57.402Z,0.20
2023-10-17T05:10:23.031Z,0.20
2023-10-17T05:15:45.332Z,0.35
2023-10-17T05:21:06.782Z,0.40
2023-10-17T05:26:28.477Z,0.28
2023-10-17T05:31:49.767Z,0.50
2023-10-17T05:37:11.471Z,0.38
2023-10-17T05:42:32.841Z,0.50
2023-10-17T05:47:54.320Z,0.30
2023-10-17T05:53:15.794Z,0.32
2023-10-17T05:58:37.253Z,0.43
2023-10-17T06:03:59.020Z,0.40
2023-10-17T06:09:22.657Z,0.40
2023-10-17T06:14:44.498Z,0.38
2023-10-17T06:19:48.479Z,0.50
2023-10-17T06:25:06.456Z,0.50
2023-10-17T06:30:28.513Z,0.40
2023-10-17T06:35:33.636Z,0.80
2023-10-17T06:40:46.078Z,0.60
2023-10-17T06:45:55.610Z,0.70
2023-10-17T06:51:06.242Z,0.60
2023-10-17T06:56:11.297Z,0.60
2023-10-17T07:01:26.436Z,0.70
2023-10-17T07:06:30.695Z,0.80
2023-10-17T07:16:43.667Z,0.80
2023-10-17T07:22:06.819Z,0.73
2023-10-17T07:27:14.043Z,0.90
2023-10-17T07:32:20.118Z,0.85
2023-10-17T07:37:23.135Z,1.00
2023-10-17T07:42:32.356Z,0.80
2023-10-17T07:47:35.628Z,0.60
2023-10-17T07:52:40.269Z,0.70
2023-10-17T07:57:45.185Z,0.60
2023-10-17T08:02:49.977Z,0.77
2023-10-17T08:08:02.802Z,0.73
2023-10-17T08:13:05.724Z,0.80
2023-10-17T08:18:16.510Z,0.70
2023-10-17T08:23:21.555Z,0.70
2023-10-17T08:28:43.311Z,1.00
2023-10-17T08:33:59.096Z,0.70
2023-10-17T08:39:05.002Z,0.70
2023-10-17T08:44:07.985Z,0.80
2023-10-17T08:49:12.004Z,1.10
2023-10-17T08:59:36.969Z,1.02
2023-10-17T09:04:40.072Z,0.73
2023-10-17T09:09:44.403Z,0.90
2023-10-17T09:14:50.839Z,0.80
2023-10-17T09:19:54.445Z,0.80
2023-10-17T09:24:58.060Z,1.00
2023-10-17T09:30:01.162Z,0.80
2023-10-17T09:35:12.410Z,0.80
2023-10-17T09:40:49.497Z,0.82
2023-10-17T09:45:57.343Z,1.10
2023-10-17T09:51:03.022Z,0.85
2023-10-17T09:56:11.203Z,1.00
2023-10-17T10:01:27.961Z,0.90
2023-10-17T10:06:34.865Z,1.20
2023-10-17T10:11:51.192Z,0.93
2023-10-17T10:17:05.196Z,0.98
2023-10-17T10:22:10.877Z,0.90
2023-10-17T10:27:14.025Z,0.95
2023-10-17T10:32:34.513Z,1.00
2023-10-17T10:37:55.139Z,1.00
2023-10-17T10:43:02.964Z,1.00
2023-10-17T10:48:16.745Z,0.90
2023-10-17T10:53:31.031Z,1.20
2023-10-17T10:58:35.777Z,0.65
2023-10-17T11:03:48.152Z,1.10
2023-10-17T11:08:51.626Z,1.08
2023-10-17T11:13:58.530Z,0.98
2023-10-17T11:19:03.350Z,0.90
2023-10-17T11:24:08.256Z,1.00
2023-10-17T11:29:11.904Z,1.00
2023-10-17T11:34:14.858Z,0.50
2023-10-17T11:39:18.237Z,0.90
2023-10-17T11:44:29.248Z,0.80
2023-10-17T11:49:37.359Z,0.80
2023-10-17T11:55:14.472Z,0.98
2023-10-17T12:00:19.969Z,1.10
2023-10-17T12:05:29.305Z,0.90
2023-10-17T12:10:38.184Z,0.80
2023-10-17T12:15:41.098Z,0.60
2023-10-17T12:20:43.975Z,0.77
2023-10-17T12:25:46.955Z,0.90
2023-10-17T12:30:50.098Z,0.80
2023-10-17T12:35:53.234Z,0.98
2023-10-17T12:40:56.176Z,0.93
2023-10-17T12:45:59.187Z,1.05
2023-10-17T12:51:13.052Z,0.90
2023-10-17T12:56:16.269Z,1.00
2023-10-17T13:01:19.614Z,0.90
2023-10-17T13:06:22.653Z,0.77
2023-10-17T13:11:26.541Z,0.82
2023-10-17T13:16:29.667Z,0.90
2023-10-17T13:21:32.660Z,1.00
2023-10-17T13:26:38.889Z,0.70
2023-10-17T13:31:41.897Z,0.80
2023-10-17T13:36:45.405Z,0.80
2023-10-17T13:41:48.241Z,0.90
2023-10-17T13:46:52.947Z,1.00
2023-10-17T13:51:56.382Z,1.00
2023-10-17T13:56:59.320Z,1.00
2023-10-17T14:02:02.543Z,0.90
2023-10-17T14:07:05.859Z,0.98
2023-10-17T14:12:12.518Z,1.00
2023-10-17T14:17:15.331Z,0.80
2023-10-17T14:22:39.910Z,0.90
2023-10-17T14:27:43.131Z,1.10
2023-10-17T14:32:47.472Z,0.98
2023-10-17T14:37:50.322Z,0.90
2023-10-17T14:42:54.761Z,0.80
2023-10-17T14:47:57.957Z,1.00
2023-10-17T14:53:01.238Z,1.05
2023-10-17T14:58:04.334Z,0.90
2023-10-17T15:03:07.861Z,1.05
2023-10-17T15:08:12.674Z,1.00
2023-10-17T15:13:16.109Z,1.15
2023-10-17T15:18:19.203Z,0.90
2023-10-17T15:23:22.238Z,0.80
2023-10-17T15:28:25.196Z,1.05
2023-10-17T15:33:28.693Z,0.90
2023-10-17T15:38:33.215Z,0.98
2023-10-17T15:43:54.630Z,0.90
2023-10-17T15:48:57.702Z,0.90
2023-10-17T15:54:00.883Z,0.90
2023-10-17T15:59:03.869Z,0.68
2023-10-17T16:04:08.653Z,0.95
2023-10-17T16:09:17.134Z,0.90
2023-10-17T16:14:20.346Z,1.00
2023-10-17T16:19:23.747Z,0.90
2023-10-17T16:24:26.913Z,0.70
2023-10-17T16:29:30.265Z,0.90
2023-10-17T16:34:33.674Z,1.13
2023-10-17T16:39:36.627Z,0.68
2023-10-17T16:44:40.076Z,1.00
2023-10-17T16:49:45.501Z,0.90
2023-10-17T16:54:49.020Z,0.85
2023-10-17T17:00:06.345Z,0.80
2023-10-17T17:05:13.028Z,0.88
2023-10-17T17:10:16.700Z,0.80
2023-10-17T17:15:19.884Z,0.80
2023-10-17T17:20:23.792Z,0.77
2023-10-17T17:25:28.588Z,0.80
2023-10-17T17:30:32.157Z,0.75
2023-10-17T17:35:37.084Z,0.80
2023-10-17T17:40:40.839Z,1.00
2023-10-17T17:45:45.455Z,1.00
2023-10-17T17:50:50.466Z,1.00
2023-10-17T17:55:53.692Z,0.88
2023-10-17T18:00:57.430Z,0.90
2023-10-17T18:06:07.906Z,0.90
2023-10-17T18:11:11.423Z,0.90
2023-10-17T18:16:18.718Z,1.10
2023-10-17T18:21:21.738Z,0.90
2023-10-17T18:26:24.806Z,1.00
2023-10-17T18:31:27.969Z,1.10
2023-10-17T18:36:30.882Z,1.00
2023-10-17T18:41:39.566Z,1.30
2023-10-17T18:46:44.198Z,0.90
2023-10-17T18:51:47.318Z,1.00
2023-10-17T18:56:51.723Z,1.20
2023-10-17T19:01:54.754Z,2.00
2023-10-17T19:07:01.482Z,1.20
2023-10-17T19:12:06.590Z,0.90
2023-10-17T19:17:09.666Z,1.05
2023-10-17T19:22:13.765Z,1.00
2023-10-17T19:27:17.701Z,0.90
2023-10-17T19:32:20.589Z,1.05
2023-10-17T19:37:23.678Z,0.90
2023-10-17T19:42:26.962Z,1.00
2023-10-17T19:47:30.133Z,0.80
2023-10-17T19:52:35.271Z,1.27
2023-10-17T19:57:38.351Z,0.95
2023-10-17T20:02:41.316Z,0.95
2023-10-17T20:07:46.089Z,1.25
2023-10-17T20:12:49.832Z,0.90
2023-10-17T20:17:52.920Z,1.10
2023-10-17T20:22:56.371Z,0.95
2023-10-17T20:28:01.033Z,0.90
2023-10-17T20:33:05.659Z,1.23
2023-10-17T20:38:11.667Z,0.93
2023-10-17T20:43:14.989Z,1.15
2023-10-17T20:48:17.823Z,1.65
2023-10-17T20:53:20.792Z,1.00
2023-10-17T20:58:23.808Z,1.40
2023-10-17T21:03:28.460Z,1.38
2023-10-17T21:08:32.072Z,1.48
2023-10-17T21:13:35.676Z,1.05
2023-10-17T21:18:38.774Z,1.50
2023-10-17T21:23:41.896Z,1.20
2023-10-17T21:28:44.824Z,1.50
2023-10-17T21:33:48.020Z,1.67
2023-10-17T21:38:53.405Z,1.50
2023-10-17T21:43:56.345Z,2.05
2023-10-17T21:48:59.189Z,1.38
2023-10-17T21:54:02.315Z,1.35
2023-10-17T21:59:06.586Z,1.33
2023-10-17T22:04:10.163Z,1.30
2023-10-17T22:09:13.839Z,1.67
2023-10-17T22:14:17.978Z,1.25
2023-10-17T22:19:21.174Z,1.63
2023-10-17T22:24:24.424Z,1.08
2023-10-17T22:29:29.518Z,1.40
2023-10-17T22:34:32.528Z,1.08
2023-10-17T22:39:36.758Z,1.45
2023-10-17T22:44:40.966Z,1.40
2023-10-17T22:49:45.882Z,1.52
2023-10-17T22:54:49.033Z,1.42
2023-10-17T22:59:52.056Z,1.60
2023-10-17T23:04:58.851Z,1.65
2023-10-17T23:10:02.424Z,1.50
2023-10-17T23:15:12.140Z,1.30
2023-10-17T23:20:16.677Z,1.23
2023-10-17T23:25:19.618Z,1.50
2023-10-17T23:30:25.031Z,1.42
2023-10-17T23:35:29.296Z,1.58
2023-10-17T23:40:34.197Z,2.00
2023-10-17T23:45:37.195Z,1.73
2023-10-17T23:50:40.093Z,2.15
2023-10-17T23:55:43.042Z,1.90
